createdAt,value
2018-09-28T01:09:39.954Z,99085.05
2018-09-28T01:12:11.841Z,99083.71
2018-09-28T01:14:43.977Z,99086.64
2018-09-28T01:17:15.785Z,99085.36
2018-09-28T01:19:47.639Z,99093.83
2018-09-28T01:22:19.241Z,99102.52
2018-09-28T01:27:04.683Z,99103.39
2018-09-28T01:29:36.532Z,99104.77
2018-09-28T01:32:08.675Z,99108.20
2018-09-28T01:34:40.473Z,99114.38
2018-09-28T01:37:12.400Z,99115.21
2018-09-28T01:39:44.435Z,99117.23
2018-09-28T01:42:16.099Z,99115.91
2018-09-28T01:44:47.888Z,99119.25
2018-09-28T01:47:19.759Z,99111.61
2018-09-28T01:49:51.379Z,99114.97
2018-09-28T01:52:23.258Z,99116.14
2018-09-28T01:54:55.405Z,99123.87
2018-09-28T01:57:27.366Z,99127.23
2018-09-28T01:59:59.317Z,99127.81
2018-09-28T02:02:30.872Z,99126.45
2018-09-28T02:05:02.572Z,99122.69
2018-09-28T02:07:35.708Z,99132.70
2018-09-28T02:10:07.586Z,99140.39
2018-09-28T02:12:39.577Z,99138.56
2018-09-28T02:15:11.479Z,99143.05
2018-09-28T02:17:43.268Z,99146.10
2018-09-28T02:20:15.210Z,99146.98
2018-09-28T02:22:47.088Z,99151.13
2018-09-28T02:25:18.281Z,99152.80
2018-09-28T02:27:49.568Z,99150.79
2018-09-28T02:30:20.861Z,99155.81
2018-09-28T02:32:52.798Z,99159.81
2018-09-28T02:35:25.399Z,99157.14
2018-09-28T02:37:57.528Z,99155.28
2018-09-28T02:43:21.388Z,99165.28
2018-09-28T02:45:53.152Z,99161.33
2018-09-28T02:48:25.074Z,99167.14
2018-09-28T02:59:24.935Z,99180.46
2018-09-28T03:01:56.793Z,99187.09
2018-09-28T03:04:29.392Z,99190.37
2018-09-28T03:07:01.195Z,99186.94
2018-09-28T03:09:34.166Z,99189.69
2018-09-28T03:12:05.866Z,99192.77
2018-09-28T03:14:37.690Z,99195.73
2018-09-28T03:17:09.323Z,99198.31
2018-09-28T03:19:41.251Z,99201.09
2018-09-28T03:22:13.366Z,99199.91
2018-09-28T03:24:45.109Z,99205.89
2018-09-28T03:27:16.749Z,99200.41
2018-09-28T03:29:48.704Z,99203.34
2018-09-28T03:32:20.545Z,99209.08
2018-09-28T03:34:52.666Z,99215.33
2018-09-28T03:37:24.241Z,99213.73
2018-09-28T03:39:56.115Z,99214.22
2018-09-28T03:42:28.368Z,99214.56
2018-09-28T03:45:00.076Z,99215.36
2018-09-28T03:47:32.325Z,99217.23
2018-09-28T03:50:04.329Z,99217.91
2018-09-28T03:52:36.239Z,99218.75
2018-09-28T03:55:08.144Z,99222.26
2018-09-28T03:57:39.895Z,99223.28
2018-09-28T04:00:12.446Z,99230.14
2018-09-28T04:02:44.350Z,99224.69
2018-09-28T04:05:15.978Z,99230.55
2018-09-28T04:07:47.756Z,99232.27
2018-09-28T04:10:21.019Z,99236.11
2018-09-28T04:12:52.547Z,99236.34
2018-09-28T04:15:24.685Z,99237.45
2018-09-28T04:17:56.629Z,99237.94
2018-09-28T04:20:28.353Z,99242.49
2018-09-28T04:23:00.206Z,99242.50
2018-09-28T04:25:32.357Z,99239.45
2018-09-28T04:28:04.333Z,99236.98
2018-09-28T04:30:36.558Z,99240.83
2018-09-28T04:33:08.450Z,99247.25
2018-09-28T04:35:40.399Z,99245.27
2018-09-28T04:38:12.372Z,99248.92
2018-09-28T04:40:44.275Z,99253.42
2018-09-28T04:43:16.102Z,99245.75
2018-09-28T04:45:47.825Z,99248.00
2018-09-28T04:48:19.585Z,99249.55
2018-09-28T04:50:51.435Z,99248.70
2018-09-28T04:53:23.112Z,99246.72
2018-09-28T04:55:54.989Z,99252.91
2018-09-28T04:58:28.278Z,99251.67
2018-09-28T05:01:00.101Z,99248.73
2018-09-28T05:03:31.696Z,99250.54
2018-09-28T05:06:03.514Z,99246.55
2018-09-28T05:08:35.371Z,99243.20
2018-09-28T05:11:07.313Z,99245.21
2018-09-28T05:13:39.003Z,99249.91
2018-09-28T05:16:10.951Z,99251.40
2018-09-28T05:18:42.694Z,99248.40
2018-09-28T05:21:14.403Z,99243.74
2018-09-28T05:23:46.600Z,99239.44
2018-09-28T05:26:18.538Z,99243.28
2018-09-28T05:28:50.447Z,99242.80
2018-09-28T05:31:22.386Z,99240.16
2018-09-28T05:33:54.614Z,99234.73
2018-09-28T05:36:26.587Z,99235.69
2018-09-28T05:38:58.678Z,99231.80
2018-09-28T05:41:30.553Z,99236.97
2018-09-28T05:44:02.600Z,99229.81
2018-09-28T05:46:34.465Z,99229.95
2018-09-28T05:49:06.575Z,99230.54
2018-09-28T05:51:38.872Z,99221.45
2018-09-28T05:54:11.073Z,99228.47
2018-09-28T05:56:42.877Z,99227.48
2018-09-28T05:59:19.268Z,99220.47
2018-09-28T06:01:55.688Z,99218.07
2018-09-28T06:04:31.962Z,99215.45
2018-09-28T06:07:04.297Z,99208.98
2018-09-28T06:09:36.155Z,99208.20
2018-09-28T06:12:07.862Z,99194.19
2018-09-28T06:14:39.675Z,99196.84
2018-09-28T06:17:11.443Z,99201.81
2018-09-28T06:19:42.995Z,99200.00
2018-09-28T06:22:14.820Z,99190.48
2018-09-28T06:24:46.924Z,99189.14
2018-09-28T06:27:18.707Z,99187.12
2018-09-28T06:29:50.649Z,99183.63
2018-09-28T06:32:22.940Z,99176.94
2018-09-28T06:34:54.947Z,99174.43
2018-09-28T06:41:27.055Z,99167.25
2018-09-28T06:43:58.932Z,99160.06
2018-09-28T06:46:30.923Z,99155.59
2018-09-28T06:49:02.592Z,99155.78
2018-09-28T06:51:34.648Z,99151.08
2018-09-28T06:54:06.384Z,99148.08
2018-09-28T06:56:38.347Z,99142.73
2018-09-28T06:59:11.161Z,99139.72
2018-09-28T07:01:44.310Z,99135.36
2018-09-28T07:04:15.996Z,99141.38
2018-09-28T07:06:47.879Z,99133.00
2018-09-28T07:09:20.116Z,99132.33
2018-09-28T07:11:52.322Z,99118.84
2018-09-28T07:14:24.231Z,99118.67
2018-09-28T07:16:56.276Z,99118.50
2018-09-28T07:19:28.206Z,99115.13
2018-09-28T07:22:00.131Z,99105.62
2018-09-28T07:24:31.970Z,99101.28
2018-09-28T07:27:04.118Z,99094.73
2018-09-28T07:29:36.131Z,99091.28
2018-09-28T07:32:08.099Z,99085.80
2018-09-28T07:34:39.876Z,99083.28
2018-09-28T07:37:12.097Z,99087.67
2018-09-28T07:39:44.234Z,99082.67
2018-09-28T07:42:16.392Z,99076.99
2018-09-28T07:44:48.256Z,99081.03
2018-09-28T07:47:20.429Z,99072.98
2018-09-28T07:49:52.186Z,99067.84
2018-09-28T07:52:23.968Z,99068.08
2018-09-28T07:54:55.578Z,99063.76
2018-09-28T07:57:27.630Z,99065.77
2018-09-28T07:59:59.971Z,99066.94
2018-09-28T08:02:32.101Z,99057.75
2018-09-28T08:05:04.894Z,99056.75
2018-09-28T08:07:37.590Z,99052.80
2018-09-28T08:10:09.717Z,99051.79
2018-09-28T08:12:42.049Z,99049.45
2018-09-28T08:15:14.124Z,99043.27
2018-09-28T08:17:46.384Z,99042.59
2018-09-28T08:20:18.629Z,99041.11
2018-09-28T08:22:51.023Z,99032.10
2018-09-28T08:25:22.998Z,99025.94
2018-09-28T08:27:55.370Z,99019.10
2018-09-28T08:30:27.582Z,99015.45
2018-09-28T08:33:00.696Z,99010.92
2018-09-28T08:35:32.728Z,99009.11
2018-09-28T08:38:05.040Z,99003.25
2018-09-28T08:40:37.627Z,99002.75
2018-09-28T08:43:09.702Z,98996.41
2018-09-28T08:45:41.851Z,99001.23
2018-09-28T08:48:13.887Z,98999.71
2018-09-28T08:50:45.740Z,98998.73
2018-09-28T08:53:17.578Z,98992.19
2018-09-28T08:55:49.505Z,98984.54
2018-09-28T08:58:21.566Z,98985.04
2018-09-28T09:00:53.830Z,98984.53
2018-09-28T09:03:26.129Z,98978.06
2018-09-28T09:05:58.791Z,98976.06
2018-09-28T09:08:30.903Z,98977.70
2018-09-28T09:11:03.744Z,98976.00
2018-09-28T09:13:36.264Z,98979.34
2018-09-28T09:16:09.139Z,98967.83
2018-09-28T09:18:41.772Z,98967.67
2018-09-28T09:21:14.069Z,98963.66
2018-09-28T09:23:46.575Z,98961.00
2018-09-28T09:26:18.769Z,98962.33
2018-09-28T09:28:52.731Z,98962.33
2018-09-28T09:31:25.140Z,98955.98
2018-09-28T09:33:57.448Z,98955.98
2018-09-28T09:36:30.915Z,98955.98
2018-09-28T15:08:33.837Z,98960.92
2018-09-28T15:11:12.355Z,98960.92
2018-09-28T15:13:44.627Z,99056.58
2018-09-28T15:16:16.677Z,99061.08
2018-09-28T15:18:48.929Z,99061.78
2018-09-28T15:21:21.456Z,99062.42
2018-09-28T15:23:53.628Z,99065.76
2018-09-28T15:26:25.400Z,99065.07
2018-09-28T15:28:58.133Z,99068.08
2018-09-28T15:31:30.335Z,99071.75
2018-09-28T15:34:02.922Z,99068.38
2018-09-28T15:36:35.413Z,99072.39
2018-09-28T15:39:10.515Z,99070.55
2018-09-28T15:41:42.795Z,99068.92
2018-09-28T15:44:14.772Z,99069.08
2018-09-28T15:46:47.193Z,99075.42
2018-09-28T15:49:19.324Z,99072.75
2018-09-28T15:51:51.242Z,99070.74
2018-09-28T15:54:23.708Z,99073.77
2018-09-28T15:56:55.700Z,99077.11
2018-09-28T15:59:30.791Z,99079.44
2018-09-28T16:02:02.841Z,99081.43
2018-09-28T16:04:34.535Z,99081.77
2018-09-28T16:07:06.347Z,99084.09
2018-09-28T16:09:38.312Z,99079.10
2018-09-28T16:12:10.132Z,99077.77
2018-09-28T16:14:42.342Z,99082.42
2018-09-28T16:17:14.494Z,99091.59
2018-09-28T16:19:46.445Z,99093.77
2018-09-28T16:22:18.347Z,99093.27
2018-09-28T16:24:50.687Z,99099.08
2018-09-28T16:27:22.307Z,99093.08
2018-09-28T16:29:54.325Z,99093.10
2018-09-28T16:32:26.222Z,99090.59
2018-09-28T16:34:58.504Z,99094.42
2018-09-28T16:37:30.539Z,99097.45
2018-09-28T16:40:02.517Z,99084.44
2018-09-28T16:42:34.493Z,99093.44
2018-09-28T16:45:06.530Z,99092.96
2018-09-28T16:47:38.160Z,99086.80
2018-09-28T16:50:10.118Z,99091.45
2018-09-28T16:52:42.295Z,99091.11
2018-09-28T16:55:15.072Z,99091.95
2018-09-28T16:57:47.048Z,99091.12
2018-09-28T17:00:19.379Z,99082.96
2018-09-28T17:02:51.318Z,99085.44
2018-09-28T17:05:23.215Z,99082.11
2018-09-28T17:07:55.175Z,99086.11
2018-09-28T17:10:27.334Z,99084.77
2018-09-28T17:12:59.410Z,99085.45
2018-09-28T17:15:31.403Z,99081.77
2018-09-28T17:18:03.570Z,99082.77
2018-09-28T17:20:35.713Z,99084.80
2018-09-28T17:23:07.440Z,99077.62
2018-09-28T17:25:39.821Z,99078.11
2018-09-28T17:28:11.557Z,99076.45
2018-09-28T17:30:43.504Z,99076.77
2018-09-28T17:33:15.640Z,99075.59
2018-09-28T17:35:47.589Z,99076.09
2018-09-28T17:38:19.808Z,99080.09
2018-09-28T17:40:51.955Z,99076.09
2018-09-28T17:43:23.579Z,99073.77
2018-09-28T17:45:55.465Z,99066.73
2018-09-28T17:48:27.313Z,99064.27
2018-09-28T17:50:59.426Z,99062.44
2018-09-28T17:53:31.499Z,99064.95
2018-09-28T17:56:04.275Z,99065.78
2018-09-28T17:58:36.192Z,99060.78
2018-09-28T18:01:08.482Z,99048.44
2018-09-28T18:03:40.285Z,99051.77
2018-09-28T18:06:12.361Z,99053.40
2018-09-28T18:08:44.462Z,99051.76
2018-09-28T18:11:16.598Z,99055.42
2018-09-28T18:13:48.126Z,99066.42
2018-09-28T18:16:20.195Z,99060.11
2018-09-28T18:18:52.350Z,99056.27
2018-09-28T18:21:24.591Z,99059.10
2018-09-28T18:23:56.684Z,99054.77
2018-09-28T18:26:28.879Z,99047.92
2018-09-28T18:29:00.564Z,99051.09
2018-09-28T18:31:32.639Z,99050.10
2018-09-28T18:34:04.441Z,99052.27
2018-09-28T18:36:37.347Z,99048.61
2018-09-28T18:39:11.250Z,99041.73
2018-09-28T18:41:42.946Z,99043.75
2018-09-28T18:44:14.918Z,99040.42
2018-09-28T18:46:46.888Z,99038.08
2018-09-28T18:49:19.507Z,99038.75
2018-09-28T18:51:51.810Z,99034.91
2018-09-28T18:54:23.618Z,99038.44
2018-09-28T18:56:55.747Z,99035.75
2018-09-28T18:59:27.598Z,99037.45
2018-09-28T19:01:59.712Z,99034.61
2018-09-28T19:04:31.837Z,99034.13
2018-09-28T19:07:03.561Z,99036.80
2018-09-28T19:09:35.475Z,99037.09
2018-09-28T19:12:07.563Z,99038.12
2018-09-28T19:14:39.359Z,99043.46
2018-09-28T19:17:11.600Z,99044.45
2018-09-28T19:19:43.233Z,99038.44
2018-09-28T19:22:15.173Z,99036.75
2018-09-28T19:24:47.259Z,99032.45
2018-09-28T19:27:19.489Z,99039.94
2018-09-28T19:29:51.308Z,99035.44
2018-09-28T19:32:23.165Z,99041.11
2018-09-28T19:34:54.863Z,99037.09
2018-09-28T19:37:27.261Z,99035.46
2018-09-28T19:39:59.380Z,99036.80
2018-09-28T19:42:31.426Z,99040.27
2018-09-28T19:45:03.319Z,99036.45
2018-09-28T19:47:35.566Z,99039.45
2018-09-28T19:50:07.715Z,99034.28
2018-09-28T19:52:40.092Z,99036.46
2018-09-28T19:55:12.299Z,99030.45
2018-09-28T19:57:44.296Z,99029.28
2018-09-28T20:00:16.193Z,99031.31
2018-09-28T20:02:48.298Z,99022.95
2018-09-28T20:05:20.277Z,99023.13
2018-09-28T20:07:52.569Z,99019.47
2018-09-28T20:10:24.365Z,99015.80
2018-09-28T20:12:57.281Z,99011.79
2018-09-28T20:15:29.358Z,99007.63
2018-09-28T20:18:01.708Z,99005.80
2018-09-28T20:20:34.090Z,99007.80
2018-09-28T20:23:07.051Z,99006.63
2018-09-28T20:25:39.115Z,99002.30
2018-09-28T20:28:11.395Z,98996.79
2018-09-28T20:30:43.303Z,98994.62
2018-09-28T20:33:15.012Z,98988.47
2018-09-28T20:35:47.013Z,98984.14
2018-09-28T20:38:19.125Z,98985.97
2018-09-28T20:40:50.945Z,98979.47
2018-09-28T20:43:23.152Z,98974.13
2018-09-28T20:45:55.060Z,98971.33
2018-09-28T20:48:26.927Z,98973.80
2018-09-28T20:50:58.733Z,98972.80
2018-09-28T20:53:31.063Z,98967.47
2018-09-28T20:56:02.758Z,98964.97
2018-09-28T20:58:34.866Z,98954.47
2018-09-28T21:01:06.756Z,98961.64
2018-09-28T21:03:38.958Z,98961.31
2018-09-28T21:06:10.836Z,98959.48
2018-09-28T21:08:43.355Z,98965.47
2018-09-28T21:11:15.187Z,98965.30
2018-09-28T21:13:47.656Z,98962.33
2018-09-28T21:16:19.187Z,98968.99
2018-09-28T21:18:51.225Z,98959.16
2018-09-28T21:21:23.220Z,98966.48
2018-09-28T21:23:55.475Z,98961.84
2018-09-28T21:26:27.481Z,98962.13
2018-09-28T21:28:59.461Z,98962.47
2018-09-28T21:31:31.390Z,98953.14
2018-09-28T21:34:03.277Z,98954.47
2018-09-28T21:36:35.226Z,98955.80
2018-09-28T21:39:09.068Z,98955.34
2018-09-28T21:41:41.173Z,98960.15
2018-09-28T21:44:13.163Z,98963.16
2018-09-28T21:46:45.346Z,98959.16
2018-09-28T21:49:18.009Z,98954.84
2018-09-28T21:51:49.985Z,98961.34
2018-09-28T21:54:21.648Z,98962.83
2018-09-28T21:56:53.577Z,98962.66
2018-09-28T21:59:25.887Z,98968.81
2018-09-28T22:01:57.692Z,98973.13
2018-09-28T22:04:29.740Z,98979.95
2018-09-28T22:07:01.875Z,98982.14
2018-09-28T22:09:33.729Z,98983.80
2018-09-28T22:12:06.037Z,98985.47
2018-09-28T22:14:38.408Z,98991.78
2018-09-28T22:17:10.049Z,99016.62
2018-09-28T22:19:42.525Z,99031.45
2018-09-28T22:22:14.404Z,99025.28
2018-09-28T22:24:46.412Z,99025.28
2018-09-28T22:27:18.346Z,99030.12
2018-09-28T22:29:50.540Z,99044.61
2018-09-28T22:32:22.698Z,99046.76
2018-09-28T22:34:54.619Z,99038.78
2018-09-28T22:37:26.615Z,99042.59
2018-09-28T22:39:58.592Z,99042.09
2018-09-28T22:42:30.572Z,99047.44
2018-09-28T22:45:02.834Z,99056.42
2018-09-28T22:47:34.646Z,99056.92
2018-09-28T22:50:06.895Z,99046.45
2018-09-28T22:52:38.904Z,99055.59
2018-09-28T22:55:10.636Z,99054.93
2018-09-28T22:57:43.629Z,99045.42
2018-09-28T23:00:15.601Z,99049.09
2018-09-28T23:02:47.304Z,99048.25
2018-09-28T23:05:19.422Z,99066.07
2018-09-28T23:07:51.323Z,99062.39
2018-09-28T23:10:23.363Z,99068.89
2018-09-28T23:12:55.502Z,99071.09
2018-09-28T23:15:27.506Z,99059.42
2018-09-28T23:17:59.392Z,99074.73
2018-09-28T23:20:31.779Z,99072.73
2018-09-28T23:23:03.840Z,99067.40
2018-09-28T23:25:35.714Z,99074.06
2018-09-28T23:28:07.879Z,99076.08
2018-09-28T23:30:40.087Z,99074.22
2018-09-28T23:33:12.180Z,99078.56
2018-09-28T23:35:44.454Z,99082.88
2018-09-28T23:38:16.564Z,99084.86
2018-09-28T23:40:48.569Z,99088.70
2018-09-28T23:43:20.421Z,99097.03
2018-09-28T23:45:52.330Z,99097.69
2018-09-28T23:48:24.052Z,99097.34
2018-09-28T23:50:55.982Z,99095.34
2018-09-28T23:53:27.850Z,99105.66
2018-09-28T23:55:59.724Z,99107.66
2018-09-28T23:58:32.611Z,99111.02
